UNIFLY Flight Plan

Who is Online Now?

Pilot VA/Community Aircraft Flight DTG (NM) Flight Plan
VXL007-Adam / EZY81NR Airbus A320-200 Tenerife Sur-Reina SofĂ­a | TFS - SEN | London Southend 17 NM Plan



This flight plan is only for information to UniFly and Simulator's and should NOT be used for real flight plans.

Flight Plan for: VXL007-Adam on Virgin XL

This flight plan consits of airport data within the last 3 hours.

Current Flight Information

Origin Destination Alternative Aircraft
(N/A) | N/A (N/A) | N/A EGLL() | London Heathrow Fenix A320 - easyJet Europe 'Standard' OE-ICN (2022)(A320) | Eazyjet

Route: KONB1W KONBA UN866 BEXAL DCT ABUPI DCT LOTEE DCT GOPIN DCT IBLEX DCT ARTIV DCT DIKRO UZ273 ANGLO DCT NEVIL NEVI1S


Cruise Information

Maxium Cruise Speed:

Maxium Cruise Altitude:

Current Position

Latitude: 51.711100217776

Longitude: 1.0778600435182

Heading: 264

Current Speed: 371

Altitude Above Sea: 11150

Altitude Above Ground: 11150

Airport Information for:

Name: N/A

IATA: N/A

Metar: N/A

Taf: N/A

Airport Information for:

Name: N/A

IATA: N/A

Metar: N/A

Taf: N/A

Airport Information for: EGLL

Name: London Heathrow

IATA:

Metar: EGLL 141050Z 23015KT 9000 -SHRA FEW028CB SCT043 15/12 Q1002 RESHRA TEMPO SHRA

Taf: TAF AMD EGLL 140649Z 1406/1512 21010KT 9999 BKN014 BECMG 1406/1409 SCT030 TEMPO 1409/1424 7000 SHRA PROB40 TEMPO 1410/1421 24016G26KT 4000 +SHRA PROB40 TEMPO 1509/1512 25016G26KT 7000 SHRA

Current World Location Map